createdAt,value
2022-11-15T00:01:10.845Z,97.30
2022-11-15T00:03:38.816Z,97.50
2022-11-15T00:06:07.310Z,97.30
2022-11-15T00:08:35.244Z,96.40
2022-11-15T00:11:04.629Z,96.80
2022-11-15T00:13:33.046Z,97.40
2022-11-15T00:16:02.211Z,96.40
2022-11-15T00:18:32.325Z,96.30
2022-11-15T00:21:06.940Z,96.10
2022-11-15T00:23:35.145Z,97.20
2022-11-15T00:26:03.550Z,97.70
2022-11-15T00:28:31.694Z,97.40
2022-11-15T00:31:03.103Z,98.10
2022-11-15T00:33:32.927Z,98.20
2022-11-15T00:36:05.534Z,98.10
2022-11-15T00:38:34.803Z,97.40
2022-11-15T00:41:08.916Z,97.50
2022-11-15T00:43:37.636Z,97.70
2022-11-15T00:46:05.558Z,98.00
2022-11-15T00:48:34.757Z,98.00
2022-11-15T00:51:02.597Z,97.40
2022-11-15T00:53:30.789Z,96.70
2022-11-15T00:55:59.023Z,97.20
2022-11-15T00:58:26.890Z,97.20
2022-11-15T01:00:55.661Z,97.60
2022-11-15T01:03:23.636Z,97.90
2022-11-15T01:05:52.848Z,97.20
2022-11-15T01:08:20.690Z,97.70
2022-11-15T01:10:48.551Z,97.80
2022-11-15T01:13:16.408Z,98.00
2022-11-15T01:15:44.483Z,98.00
2022-11-15T01:18:12.322Z,97.70
2022-11-15T01:20:42.856Z,97.70
2022-11-15T01:23:12.349Z,97.60
2022-11-15T01:25:40.215Z,97.60
2022-11-15T01:28:08.062Z,97.40
2022-11-15T01:30:37.571Z,97.20
2022-11-15T01:33:05.420Z,97.00
2022-11-15T01:35:33.336Z,96.70
2022-11-15T01:38:01.202Z,96.70
2022-11-15T01:40:30.384Z,96.70
2022-11-15T01:42:58.222Z,96.70
2022-11-15T01:45:26.101Z,95.90
2022-11-15T01:47:56.012Z,96.70
2022-11-15T01:50:27.955Z,96.70
2022-11-15T01:52:56.162Z,96.80
2022-11-15T01:55:27.074Z,96.70
2022-11-15T01:57:59.931Z,96.60
2022-11-15T02:00:27.818Z,96.70
2022-11-15T02:02:55.813Z,97.20
2022-11-15T02:05:23.793Z,96.70
2022-11-15T02:07:51.987Z,97.60
2022-11-15T02:10:22.066Z,97.60
2022-11-15T02:12:50.418Z,97.60
2022-11-15T02:15:19.942Z,97.60
2022-11-15T02:18:04.804Z,97.30
2022-11-15T02:20:52.222Z,97.20
2022-11-15T02:23:51.879Z,97.10
2022-11-15T02:26:48.219Z,96.90
2022-11-15T02:29:25.677Z,97.00
2022-11-15T02:32:02.735Z,97.10
2022-11-15T02:34:37.250Z,97.00
2022-11-15T02:37:13.582Z,97.00
2022-11-15T02:39:48.794Z,97.00
2022-11-15T02:42:39.415Z,97.10
2022-11-15T02:45:11.202Z,97.30
2022-11-15T02:47:45.527Z,97.30
2022-11-15T02:50:17.729Z,97.40
2022-11-15T02:52:47.929Z,97.40
2022-11-15T02:55:30.604Z,97.30
2022-11-15T02:58:22.425Z,97.20
2022-11-15T03:00:57.843Z,97.60
2022-11-15T03:03:42.483Z,97.50
2022-11-15T03:06:22.115Z,97.70
2022-11-15T03:08:59.753Z,97.60
2022-11-15T03:11:27.948Z,97.60
2022-11-15T03:14:00.527Z,97.40
2022-11-15T03:16:32.713Z,97.20
2022-11-15T03:19:07.537Z,96.80
2022-11-15T03:21:36.823Z,97.10
2022-11-15T03:24:08.268Z,97.20
2022-11-15T03:26:39.646Z,97.20
2022-11-15T03:29:13.566Z,96.80
2022-11-15T03:31:51.205Z,97.30
2022-11-15T03:34:28.261Z,97.40
2022-11-15T03:36:56.592Z,97.40
2022-11-15T03:39:25.492Z,96.80
2022-11-15T03:42:03.753Z,97.30
2022-11-15T03:44:41.430Z,97.50
2022-11-15T03:47:13.388Z,97.40
2022-11-15T03:49:46.960Z,97.40
2022-11-15T03:52:14.977Z,97.50
2022-11-15T03:54:51.300Z,97.50
2022-11-15T03:57:19.526Z,97.40
2022-11-15T03:59:47.373Z,97.40
2022-11-15T04:02:15.498Z,97.40
2022-11-15T04:04:44.660Z,97.40
2022-11-15T04:07:12.658Z,97.30
2022-11-15T04:10:02.955Z,97.40
2022-11-15T04:12:33.598Z,97.40
2022-11-15T04:15:09.393Z,97.20
2022-11-15T04:17:39.257Z,96.90
2022-11-15T04:20:29.918Z,97.10
2022-11-15T04:23:12.885Z,97.30
2022-11-15T04:25:41.153Z,97.30
2022-11-15T04:28:09.200Z,97.40
2022-11-15T04:30:37.202Z,97.40
2022-11-15T04:33:05.491Z,96.70
2022-11-15T04:35:34.962Z,97.40
2022-11-15T04:38:03.806Z,97.60
2022-11-15T04:40:31.647Z,97.60
2022-11-15T04:43:03.656Z,98.10
2022-11-15T04:45:32.302Z,98.00
2022-11-15T04:48:00.158Z,97.80
2022-11-15T04:50:27.965Z,97.90
2022-11-15T04:52:57.141Z,97.90
2022-11-15T04:55:24.986Z,97.80
2022-11-15T04:58:00.755Z,97.40
2022-11-15T05:00:29.754Z,97.60
2022-11-15T05:03:15.611Z,97.60
2022-11-15T05:05:43.790Z,97.50
2022-11-15T05:08:12.999Z,97.10
2022-11-15T05:10:40.852Z,97.40
2022-11-15T05:13:08.694Z,98.00
2022-11-15T05:15:36.555Z,97.50
2022-11-15T05:18:04.480Z,98.10
2022-11-15T05:20:32.354Z,98.20
2022-11-15T05:23:00.280Z,98.30
2022-11-15T05:25:29.795Z,97.90
2022-11-15T05:27:58.021Z,97.80
2022-11-15T05:30:25.928Z,98.10
2022-11-15T05:32:53.799Z,98.00
2022-11-15T05:35:27.666Z,98.40
2022-11-15T05:37:55.535Z,98.50
2022-11-15T05:40:23.590Z,98.40
2022-11-15T05:42:52.861Z,98.30
2022-11-15T05:45:26.548Z,97.20
2022-11-15T05:47:56.325Z,98.10
2022-11-15T05:50:24.488Z,98.00
2022-11-15T05:52:53.283Z,98.00
2022-11-15T05:55:21.241Z,97.90
2022-11-15T05:57:49.262Z,97.90
2022-11-15T06:00:19.175Z,97.80
2022-11-15T06:02:47.032Z,97.60
2022-11-15T06:05:14.999Z,96.90
2022-11-15T06:07:42.856Z,97.60
2022-11-15T06:10:11.257Z,97.80
2022-11-15T06:12:39.114Z,97.40
2022-11-15T06:15:07.991Z,97.90
2022-11-15T06:17:37.216Z,97.90
2022-11-15T06:20:05.582Z,97.80
2022-11-15T06:22:33.617Z,97.60
2022-11-15T06:25:05.142Z,97.40
2022-11-15T06:27:33.385Z,97.20
2022-11-15T06:30:01.179Z,97.50
2022-11-15T06:32:30.746Z,97.20
2022-11-15T06:34:59.909Z,97.30
2022-11-15T06:37:27.726Z,97.20
2022-11-15T06:39:55.557Z,97.10
2022-11-15T06:42:23.380Z,97.20
2022-11-15T06:44:51.189Z,97.20
2022-11-15T06:47:19.075Z,97.10
2022-11-15T06:49:46.933Z,97.00
2022-11-15T06:52:16.134Z,96.90
2022-11-15T06:54:44.025Z,96.80
2022-11-15T06:57:11.841Z,96.90
2022-11-15T06:59:40.760Z,96.50
2022-11-15T07:02:13.493Z,96.50
2022-11-15T07:04:41.485Z,96.40
2022-11-15T07:07:09.381Z,95.50
2022-11-15T07:09:38.586Z,96.50
2022-11-15T07:12:07.990Z,96.60
2022-11-15T07:14:36.014Z,96.90
2022-11-15T07:17:06.121Z,96.80
2022-11-15T07:19:34.044Z,96.70
2022-11-15T07:22:01.882Z,96.50
2022-11-15T07:24:29.729Z,96.60
2022-11-15T07:26:59.275Z,96.50
2022-11-15T07:29:27.293Z,96.40
2022-11-15T07:31:55.278Z,96.50
2022-11-15T07:34:23.119Z,96.40
2022-11-15T07:36:50.972Z,96.20
2022-11-15T07:39:18.812Z,96.30
2022-11-15T07:41:48.784Z,96.00
2022-11-15T07:44:17.975Z,95.10
2022-11-15T07:46:45.827Z,96.00
2022-11-15T07:49:13.752Z,95.90
2022-11-15T07:51:41.657Z,96.10
2022-11-15T07:54:09.623Z,96.30
2022-11-15T07:56:37.531Z,96.20
2022-11-15T07:59:05.413Z,95.00
2022-11-15T08:01:34.763Z,96.90
2022-11-15T08:04:02.710Z,96.10
2022-11-15T08:06:31.066Z,96.70
2022-11-15T08:08:58.921Z,96.70
2022-11-15T08:11:26.809Z,96.40
2022-11-15T08:13:54.676Z,96.60
2022-11-15T08:16:22.589Z,96.70
2022-11-15T08:18:51.837Z,96.60
2022-11-15T08:21:22.031Z,96.50
2022-11-15T08:23:50.549Z,96.70
2022-11-15T08:26:18.523Z,96.40
2022-11-15T08:28:46.395Z,96.30
2022-11-15T08:31:17.549Z,96.40
2022-11-15T08:33:46.477Z,96.30
2022-11-15T08:36:17.936Z,96.30
2022-11-15T08:38:45.802Z,96.20
2022-11-15T08:41:15.969Z,96.20
2022-11-15T08:43:43.803Z,96.20
2022-11-15T08:46:14.748Z,96.10
2022-11-15T08:48:42.632Z,95.40
2022-11-15T08:51:10.471Z,96.30
2022-11-15T08:53:39.675Z,96.40
2022-11-15T08:56:10.064Z,96.20
2022-11-15T08:58:38.210Z,95.80
2022-11-15T09:01:07.091Z,96.20
2022-11-15T09:03:34.962Z,95.80
2022-11-15T09:06:03.321Z,95.80
2022-11-15T09:08:46.939Z,95.60
2022-11-15T09:11:17.397Z,95.50
2022-11-15T09:13:45.467Z,95.50
2022-11-15T09:16:13.881Z,95.40
2022-11-15T09:18:41.725Z,95.30
2022-11-15T09:21:10.304Z,95.30
2022-11-15T09:23:38.161Z,95.10
2022-11-15T09:26:07.203Z,95.00
2022-11-15T09:28:37.740Z,94.90
2022-11-15T09:31:07.326Z,94.30
2022-11-15T09:33:35.599Z,94.50
2022-11-15T09:36:05.041Z,94.60
2022-11-15T09:38:33.740Z,94.90
2022-11-15T09:41:22.509Z,95.10
2022-11-15T09:44:03.382Z,95.30
2022-11-15T09:46:44.420Z,92.20
2022-11-15T09:49:16.012Z,94.70
2022-11-15T09:51:48.537Z,94.30
2022-11-15T09:57:19.717Z,94.70
2022-11-15T10:00:23.838Z,95.30
2022-11-15T10:03:06.341Z,95.20
2022-11-15T10:05:39.314Z,95.30
2022-11-15T10:08:22.740Z,95.20
2022-11-15T10:11:15.821Z,94.80
2022-11-15T10:13:45.619Z,94.70
2022-11-15T10:16:43.288Z,94.50
2022-11-15T10:19:23.095Z,94.50
2022-11-15T10:22:01.972Z,94.50
2022-11-15T10:24:34.434Z,94.60
2022-11-15T10:27:02.961Z,94.50
2022-11-15T10:29:30.841Z,94.50
2022-11-15T10:32:00.042Z,94.60
2022-11-15T10:34:28.589Z,94.40
2022-11-15T10:36:58.074Z,93.20
2022-11-15T10:39:26.808Z,94.60
2022-11-15T10:41:55.043Z,94.60
2022-11-15T10:44:26.654Z,93.80
2022-11-15T10:47:28.150Z,94.60
2022-11-15T10:50:09.214Z,93.30
2022-11-15T10:52:39.025Z,93.10
2022-11-15T10:55:24.483Z,94.50
2022-11-15T10:57:54.950Z,94.80
2022-11-15T11:00:34.538Z,94.60
2022-11-15T11:03:06.788Z,94.60
2022-11-15T11:05:41.817Z,94.50
2022-11-15T11:08:24.156Z,94.40
2022-11-15T11:11:01.403Z,94.30
2022-11-15T11:13:32.334Z,94.10
2022-11-15T11:16:11.184Z,94.10
2022-11-15T11:18:47.820Z,93.40
2022-11-15T11:21:19.262Z,94.10
2022-11-15T11:23:54.051Z,93.20
2022-11-15T11:26:37.458Z,94.40
2022-11-15T11:29:18.121Z,92.90
2022-11-15T11:31:54.790Z,94.40
2022-11-15T11:34:38.766Z,92.30
2022-11-15T11:37:16.088Z,91.40
2022-11-15T11:39:57.898Z,94.80
2022-11-15T11:42:38.318Z,93.60
2022-11-15T11:45:17.978Z,95.00
2022-11-15T11:47:50.529Z,94.50
2022-11-15T11:50:21.950Z,94.30
2022-11-15T11:53:03.577Z,94.10
2022-11-15T11:55:39.595Z,94.00
2022-11-15T11:58:15.216Z,93.90
2022-11-15T12:00:48.166Z,93.90
2022-11-15T12:03:22.481Z,93.80
2022-11-15T12:05:56.270Z,92.60
2022-11-15T12:08:33.609Z,90.10
2022-11-15T12:11:08.360Z,94.30
2022-11-15T12:13:37.757Z,90.60
2022-11-15T12:16:12.898Z,94.00
2022-11-15T12:18:40.939Z,94.20
2022-11-15T12:21:17.369Z,93.30
2022-11-15T12:23:50.642Z,93.90
2022-11-15T12:26:22.412Z,90.90
2022-11-15T12:29:06.807Z,84.50
2022-11-15T12:31:40.529Z,93.50
2022-11-15T12:34:30.882Z,93.70
2022-11-15T12:37:00.093Z,93.50
2022-11-15T12:40:03.693Z,93.00
2022-11-15T12:42:42.875Z,92.70
2022-11-15T12:45:26.887Z,92.80
2022-11-15T12:47:54.870Z,92.70
2022-11-15T12:50:55.068Z,92.60
2022-11-15T12:53:31.896Z,91.40
2022-11-15T12:56:20.481Z,90.00
2022-11-15T12:58:50.980Z,86.20
2022-11-15T13:01:56.427Z,93.00
2022-11-15T13:04:27.374Z,93.20
2022-11-15T13:06:57.003Z,85.30
2022-11-15T13:09:55.501Z,88.50
2022-11-15T13:12:52.692Z,93.00
2022-11-15T13:15:54.429Z,93.00
2022-11-15T13:18:38.241Z,91.90
2022-11-15T13:21:44.465Z,93.30
2022-11-15T13:24:17.733Z,93.20
2022-11-15T13:26:47.890Z,93.10
2022-11-15T13:29:20.547Z,91.60
2022-11-15T13:31:49.255Z,91.40
2022-11-15T13:34:49.986Z,83.50
2022-11-15T13:37:31.840Z,86.30
2022-11-15T13:40:17.876Z,83.00
2022-11-15T13:42:47.120Z,82.50
2022-11-15T13:45:17.300Z,82.00
2022-11-15T13:47:45.185Z,82.30
2022-11-15T13:50:13.954Z,80.30
2022-11-15T13:52:45.223Z,81.60
2022-11-15T13:55:17.295Z,81.60
2022-11-15T13:57:48.066Z,81.70
2022-11-15T14:00:35.806Z,82.50
2022-11-15T14:03:20.038Z,80.00
2022-11-15T14:06:02.017Z,80.40
2022-11-15T14:08:30.308Z,80.50
2022-11-15T14:11:15.722Z,81.80
2022-11-15T14:14:01.863Z,81.10
2022-11-15T14:16:36.298Z,81.90
2022-11-15T14:19:05.979Z,81.60
2022-11-15T14:21:34.521Z,81.90
2022-11-15T14:24:18.641Z,82.80
2022-11-15T14:26:47.010Z,84.40
2022-11-15T14:29:26.705Z,85.30
2022-11-15T14:31:54.774Z,84.00
2022-11-15T14:34:23.217Z,83.60
2022-11-15T14:36:51.106Z,83.40
2022-11-15T14:39:18.976Z,83.50
2022-11-15T14:41:46.821Z,84.40
2022-11-15T14:44:19.328Z,83.80
2022-11-15T14:46:49.077Z,83.20
2022-11-15T14:49:17.246Z,85.20
2022-11-15T14:51:45.121Z,86.50
2022-11-15T14:54:13.116Z,84.90
2022-11-15T14:56:41.449Z,84.50
2022-11-15T14:59:09.295Z,84.70
2022-11-15T15:01:37.155Z,84.10
2022-11-15T15:04:06.342Z,84.10
2022-11-15T15:06:34.323Z,84.60
2022-11-15T15:09:02.284Z,88.20
2022-11-15T15:11:32.841Z,85.10
2022-11-15T15:14:02.121Z,86.90
2022-11-15T15:16:29.971Z,86.30
2022-11-15T15:18:58.082Z,85.20
2022-11-15T15:21:35.338Z,89.90
2022-11-15T15:24:05.229Z,88.00
2022-11-15T15:26:34.723Z,87.20
2022-11-15T15:29:02.579Z,86.40
2022-11-15T15:31:30.421Z,86.70
2022-11-15T15:33:58.244Z,86.70
2022-11-15T15:36:27.476Z,88.00
2022-11-15T15:38:55.436Z,90.60
2022-11-15T15:41:23.286Z,87.90
2022-11-15T15:43:51.129Z,88.10
2022-11-15T15:46:20.650Z,90.30
2022-11-15T15:48:48.864Z,89.50
2022-11-15T15:51:20.502Z,91.00
2022-11-15T15:53:51.639Z,91.30
2022-11-15T15:56:19.577Z,91.10
2022-11-15T15:58:47.518Z,86.30
2022-11-15T16:01:15.400Z,88.80
2022-11-15T16:03:43.295Z,91.10
2022-11-15T16:06:37.241Z,92.10
2022-11-15T16:09:16.045Z,89.10
2022-11-15T16:11:46.207Z,91.20
2022-11-15T16:14:14.347Z,90.60
2022-11-15T16:16:42.492Z,90.00
2022-11-15T16:19:12.367Z,91.40
2022-11-15T16:21:40.218Z,90.80
2022-11-15T16:24:09.523Z,88.10
2022-11-15T16:26:38.794Z,91.80
2022-11-15T16:29:07.856Z,90.00
2022-11-15T16:31:35.749Z,92.10
2022-11-15T16:34:03.658Z,90.80
2022-11-15T16:36:34.279Z,92.70
2022-11-15T16:39:04.834Z,92.10
2022-11-15T16:41:34.057Z,90.30
2022-11-15T16:44:01.972Z,92.70
2022-11-15T16:46:30.182Z,89.00
2022-11-15T16:48:58.426Z,88.70
2022-11-15T16:51:26.528Z,89.20
2022-11-15T16:53:54.374Z,91.60
2022-11-15T16:56:26.528Z,91.70
2022-11-15T16:58:58.489Z,92.70
2022-11-15T17:01:28.177Z,92.40
2022-11-15T17:03:56.790Z,92.20
2022-11-15T17:06:25.974Z,89.90
2022-11-15T17:08:54.262Z,90.30
2022-11-15T17:11:23.746Z,92.20
2022-11-15T17:13:51.574Z,92.00
2022-11-15T17:16:20.758Z,93.10
2022-11-15T17:18:52.638Z,91.80
2022-11-15T17:21:22.621Z,90.70
2022-11-15T17:23:50.502Z,91.50
2022-11-15T17:26:29.422Z,92.00
2022-11-15T17:29:00.097Z,92.20
2022-11-15T17:31:31.170Z,90.40
2022-11-15T17:33:59.013Z,92.10
2022-11-15T17:36:26.843Z,90.40
2022-11-15T17:38:59.253Z,89.60
2022-11-15T17:41:28.833Z,91.40
2022-11-15T17:43:58.912Z,92.60
2022-11-15T17:46:28.031Z,92.80
2022-11-15T17:48:58.262Z,90.20
2022-11-15T17:51:26.653Z,90.60
2022-11-15T17:53:54.636Z,90.60
2022-11-15T17:56:26.219Z,90.30
2022-11-15T17:58:56.130Z,91.50
2022-11-15T18:01:25.910Z,91.00
2022-11-15T18:03:54.717Z,91.30
2022-11-15T18:06:25.724Z,92.40
2022-11-15T18:08:55.855Z,93.60
2022-11-15T18:11:25.849Z,91.90
2022-11-15T18:13:56.060Z,92.40
2022-11-15T18:16:26.010Z,91.90
2022-11-15T18:18:54.558Z,90.60
2022-11-15T18:21:25.466Z,91.20
2022-11-15T18:23:56.702Z,93.10
2022-11-15T18:26:27.587Z,92.70
2022-11-15T18:28:57.998Z,93.90
2022-11-15T18:31:28.110Z,92.30
2022-11-15T18:33:56.699Z,91.90
2022-11-15T18:36:27.656Z,91.30
2022-11-15T18:38:56.470Z,94.00
2022-11-15T18:41:28.222Z,94.10
2022-11-15T18:43:56.824Z,94.00
2022-11-15T18:46:26.979Z,93.50
2022-11-15T18:48:55.851Z,92.90
2022-11-15T18:51:26.935Z,91.00
2022-11-15T18:53:55.812Z,92.50
2022-11-15T18:56:25.133Z,92.10
2022-11-15T18:58:55.099Z,92.60
2022-11-15T19:01:25.604Z,92.60
2022-11-15T19:03:55.219Z,91.30
2022-11-15T19:06:25.636Z,92.00
2022-11-15T19:08:56.571Z,91.70
2022-11-15T19:11:28.626Z,91.70
2022-11-15T19:13:57.606Z,93.20
2022-11-15T19:16:25.567Z,93.20
2022-11-15T19:18:56.753Z,91.20
2022-11-15T19:21:25.993Z,92.50
2022-11-15T19:23:55.445Z,92.70
2022-11-15T19:26:24.665Z,92.90
2022-11-15T19:28:53.894Z,91.70
2022-11-15T19:31:23.531Z,91.80
2022-11-15T19:33:52.620Z,92.60
2022-11-15T19:36:22.818Z,94.00
2022-11-15T19:38:50.977Z,94.10
2022-11-15T19:41:21.923Z,93.70
2022-11-15T19:43:50.862Z,92.90
2022-11-15T19:46:20.433Z,93.30
2022-11-15T19:48:48.975Z,92.20
2022-11-15T19:51:19.153Z,92.80
2022-11-15T19:53:47.100Z,93.30
2022-11-15T19:56:17.299Z,93.80
2022-11-15T19:58:47.147Z,92.70
2022-11-15T20:01:19.843Z,92.70
2022-11-15T20:03:50.001Z,92.60
2022-11-15T20:06:19.895Z,93.10
2022-11-15T20:08:48.162Z,93.50
2022-11-15T20:11:17.163Z,93.20
2022-11-15T20:13:46.675Z,92.70
2022-11-15T20:16:17.713Z,93.90
2022-11-15T20:18:45.945Z,93.70
2022-11-15T20:21:14.146Z,92.60
2022-11-15T20:23:42.722Z,93.10
2022-11-15T20:26:11.420Z,93.20
2022-11-15T20:28:40.571Z,92.70
2022-11-15T20:31:11.349Z,92.90
2022-11-15T20:33:39.213Z,94.30
2022-11-15T20:36:08.380Z,93.50
2022-11-15T20:38:37.334Z,93.70
2022-11-15T20:41:05.657Z,93.10
2022-11-15T20:43:33.662Z,92.70
2022-11-15T20:46:01.501Z,93.40
2022-11-15T20:48:31.284Z,93.40
2022-11-15T20:51:06.414Z,93.30
2022-11-15T20:53:34.566Z,93.50
2022-11-15T20:56:08.256Z,94.00
2022-11-15T20:58:36.635Z,94.10
2022-11-15T21:01:05.456Z,93.70
2022-11-15T21:03:35.794Z,93.60
2022-11-15T21:06:04.377Z,93.70
2022-11-15T21:08:52.490Z,93.80
2022-11-15T21:11:38.677Z,93.80
2022-11-15T21:14:09.489Z,93.20
2022-11-15T21:16:37.692Z,93.90
2022-11-15T21:19:07.369Z,93.60
2022-11-15T21:21:36.001Z,93.70
2022-11-15T21:24:04.552Z,94.40
2022-11-15T21:26:32.487Z,93.80
2022-11-15T21:29:00.276Z,93.80
2022-11-15T21:31:28.210Z,93.50
2022-11-15T21:33:56.058Z,93.50
2022-11-15T21:36:25.948Z,94.30
2022-11-15T21:38:54.581Z,93.50
2022-11-15T21:41:22.452Z,94.00
2022-11-15T21:43:50.305Z,93.70
2022-11-15T21:46:18.168Z,93.90
2022-11-15T21:48:46.063Z,93.30
2022-11-15T21:51:14.015Z,94.60
2022-11-15T21:53:43.259Z,94.50
2022-11-15T21:56:11.904Z,94.50
2022-11-15T21:58:40.542Z,93.40
2022-11-15T22:01:26.665Z,94.90
2022-11-15T22:03:54.636Z,94.20
2022-11-15T22:06:22.591Z,94.10
2022-11-15T22:08:51.907Z,93.60
2022-11-15T22:11:19.781Z,93.70
2022-11-15T22:13:47.673Z,94.00
2022-11-15T22:16:15.502Z,94.30
2022-11-15T22:18:43.372Z,94.20
2022-11-15T22:21:13.382Z,94.10
2022-11-15T22:23:41.641Z,94.10
2022-11-15T22:26:14.179Z,94.30
2022-11-15T22:28:43.759Z,94.00
2022-11-15T22:31:12.065Z,94.60
2022-11-15T22:33:40.761Z,94.70
2022-11-15T22:36:09.395Z,94.80
2022-11-15T22:38:37.517Z,94.90
2022-11-15T22:41:05.654Z,95.50
2022-11-15T22:43:35.040Z,95.10
2022-11-15T22:46:04.300Z,94.90
2022-11-15T22:48:34.303Z,95.00
2022-11-15T22:51:02.784Z,95.30
2022-11-15T22:53:31.301Z,95.60
2022-11-15T22:56:00.596Z,95.50
2022-11-15T22:58:30.493Z,95.60
2022-11-15T23:01:01.923Z,96.20
2022-11-15T23:03:30.583Z,96.50
2022-11-15T23:06:02.844Z,96.70
2022-11-15T23:08:31.057Z,97.10
2022-11-15T23:11:18.469Z,97.30
2022-11-15T23:13:46.281Z,97.90
2022-11-15T23:16:25.783Z,98.20
2022-11-15T23:18:58.364Z,98.40
2022-11-15T23:21:45.758Z,98.70
2022-11-15T23:24:15.078Z,99.00
2022-11-15T23:26:44.229Z,98.80
2022-11-15T23:29:14.437Z,99.30
2022-11-15T23:32:02.803Z,99.80
2022-11-15T23:34:31.598Z,99.70
2022-11-15T23:36:59.517Z,99.30
2022-11-15T23:39:27.764Z,98.90
2022-11-15T23:41:55.684Z,99.00
2022-11-15T23:44:23.572Z,99.50
2022-11-15T23:46:53.227Z,99.80
2022-11-15T23:49:21.581Z,99.60
2022-11-15T23:51:49.731Z,99.90
2022-11-15T23:54:17.547Z,99.90
2022-11-15T23:56:45.358Z,99.90
2022-11-15T23:59:13.190Z,99.90
